Holeby, Denmark
Current Conditions -  °F | °C
As of 12:50 PM on Friday 19 Dec 2014 (Local Time) from EDHK Reporting Station
Broken Clouds Broken Clouds  
Wind Chill: 40°   Ceiling: 5600
Heat Index: 46°   Visibility: 6mi
Dew Point: 43°   Wind: 16mph
Humidity: 87%   Direction: 260°W
Pressure: 29.56"   Gusts: NA
Location:  54.71°N, 11.46°E
Report Text: EDHK 191150Z 26014KT 9999 FEW040 BKN056 08/06 Q1001
Loading
Personal Weather Stations






























Interactive Weather Map New forecast layout! Learn more

10-Day Weather Forecast

Advertisements
Track Severe Weather on mobile